sensor_id;sensor_type;location;lat;lon;timestamp;temperature;humidity
53904;DHT22;39812;52.430;16.936;2023-06-26T00:00:20;18.60;81.80
53904;DHT22;39812;52.430;16.936;2023-06-26T00:02:46;18.60;81.50
53904;DHT22;39812;52.430;16.936;2023-06-26T00:05:11;18.80;80.70
53904;DHT22;39812;52.430;16.936;2023-06-26T00:07:37;18.90;80.30
53904;DHT22;39812;52.430;16.936;2023-06-26T00:10:03;18.90;80.20
53904;DHT22;39812;52.430;16.936;2023-06-26T00:12:30;19.10;79.80
53904;DHT22;39812;52.430;16.936;2023-06-26T00:14:55;19.10;79.00
53904;DHT22;39812;52.430;16.936;2023-06-26T00:17:22;19.20;79.20
53904;DHT22;39812;52.430;16.936;2023-06-26T00:19:48;19.20;79.00
53904;DHT22;39812;52.430;16.936;2023-06-26T00:22:14;19.20;79.00
53904;DHT22;39812;52.430;16.936;2023-06-26T00:24:39;19.30;79.00
53904;DHT22;39812;52.430;16.936;2023-06-26T00:27:05;19.30;79.10
53904;DHT22;39812;52.430;16.936;2023-06-26T00:29:31;19.30;80.10
53904;DHT22;39812;52.430;16.936;2023-06-26T00:31:57;19.30;79.60
53904;DHT22;39812;52.430;16.936;2023-06-26T00:34:22;19.30;79.60
53904;DHT22;39812;52.430;16.936;2023-06-26T00:36:48;19.20;79.40
53904;DHT22;39812;52.430;16.936;2023-06-26T00:39:14;19.10;79.60
53904;DHT22;39812;52.430;16.936;2023-06-26T00:41:39;19.10;80.00
53904;DHT22;39812;52.430;16.936;2023-06-26T00:44:05;19.00;80.20
53904;DHT22;39812;52.430;16.936;2023-06-26T00:46:31;18.90;80.40
53904;DHT22;39812;52.430;16.936;2023-06-26T00:48:59;18.90;80.70
53904;DHT22;39812;52.430;16.936;2023-06-26T00:51:29;18.80;80.70
53904;DHT22;39812;52.430;16.936;2023-06-26T00:53:55;18.70;81.20
53904;DHT22;39812;52.430;16.936;2023-06-26T00:56:22;18.60;81.70
53904;DHT22;39812;52.430;16.936;2023-06-26T00:58:47;18.60;82.30
53904;DHT22;39812;52.430;16.936;2023-06-26T01:01:13;18.40;82.60
53904;DHT22;39812;52.430;16.936;2023-06-26T01:03:46;18.40;83.40
53904;DHT22;39812;52.430;16.936;2023-06-26T01:06:17;18.30;83.80
53904;DHT22;39812;52.430;16.936;2023-06-26T01:08:44;18.20;84.30
53904;DHT22;39812;52.430;16.936;2023-06-26T01:11:11;18.10;84.60
53904;DHT22;39812;52.430;16.936;2023-06-26T01:13:38;18.10;85.00
53904;DHT22;39812;52.430;16.936;2023-06-26T01:16:05;18.10;85.50
53904;DHT22;39812;52.430;16.936;2023-06-26T01:18:32;18.10;85.70
53904;DHT22;39812;52.430;16.936;2023-06-26T01:20:58;18.00;86.50
53904;DHT22;39812;52.430;16.936;2023-06-26T01:26:23;17.90;87.30
53904;DHT22;39812;52.430;16.936;2023-06-26T01:28:53;17.80;87.80
53904;DHT22;39812;52.430;16.936;2023-06-26T01:31:19;17.70;89.40
53904;DHT22;39812;52.430;16.936;2023-06-26T01:33:46;17.60;89.50
53904;DHT22;39812;52.430;16.936;2023-06-26T01:36:12;17.50;90.00
53904;DHT22;39812;52.430;16.936;2023-06-26T01:38:38;17.50;90.20
53904;DHT22;39812;52.430;16.936;2023-06-26T01:41:04;17.40;90.40
53904;DHT22;39812;52.430;16.936;2023-06-26T01:46:01;17.20;91.00
53904;DHT22;39812;52.430;16.936;2023-06-26T01:48:55;17.10;91.50
53904;DHT22;39812;52.430;16.936;2023-06-26T01:51:20;17.00;91.70
53904;DHT22;39812;52.430;16.936;2023-06-26T01:53:52;17.00;91.90
53904;DHT22;39812;52.430;16.936;2023-06-26T01:56:19;16.90;91.90
53904;DHT22;39812;52.430;16.936;2023-06-26T01:58:47;16.90;92.20
53904;DHT22;39812;52.430;16.936;2023-06-26T02:01:13;16.90;92.30
53904;DHT22;39812;52.430;16.936;2023-06-26T02:03:39;16.70;92.80
53904;DHT22;39812;52.430;16.936;2023-06-26T02:06:04;16.70;92.90
53904;DHT22;39812;52.430;16.936;2023-06-26T02:08:30;16.80;92.70
53904;DHT22;39812;52.430;16.936;2023-06-26T02:10:56;16.80;92.90
53904;DHT22;39812;52.430;16.936;2023-06-26T02:13:21;16.80;92.80
53904;DHT22;39812;52.430;16.936;2023-06-26T02:15:47;16.80;92.70
53904;DHT22;39812;52.430;16.936;2023-06-26T02:18:13;16.80;92.80
53904;DHT22;39812;52.430;16.936;2023-06-26T02:20:38;16.90;92.70
53904;DHT22;39812;52.430;16.936;2023-06-26T02:23:05;16.90;92.60
53904;DHT22;39812;52.430;16.936;2023-06-26T02:25:30;16.90;92.60
53904;DHT22;39812;52.430;16.936;2023-06-26T02:27:56;16.90;92.60
53904;DHT22;39812;52.430;16.936;2023-06-26T02:30:22;16.80;92.90
53904;DHT22;39812;52.430;16.936;2023-06-26T02:32:47;16.70;93.10
53904;DHT22;39812;52.430;16.936;2023-06-26T02:35:13;16.70;93.30
53904;DHT22;39812;52.430;16.936;2023-06-26T02:37:39;16.70;93.40
53904;DHT22;39812;52.430;16.936;2023-06-26T02:40:04;16.70;93.50
53904;DHT22;39812;52.430;16.936;2023-06-26T02:42:31;16.60;94.00
53904;DHT22;39812;52.430;16.936;2023-06-26T02:44:57;16.60;94.00
53904;DHT22;39812;52.430;16.936;2023-06-26T02:47:23;16.60;94.20
53904;DHT22;39812;52.430;16.936;2023-06-26T02:49:48;16.40;94.60
53904;DHT22;39812;52.430;16.936;2023-06-26T02:52:14;16.30;94.90
53904;DHT22;39812;52.430;16.936;2023-06-26T02:54:40;16.30;95.50
53904;DHT22;39812;52.430;16.936;2023-06-26T02:57:05;16.30;95.60
53904;DHT22;39812;52.430;16.936;2023-06-26T02:59:32;16.50;95.80
53904;DHT22;39812;52.430;16.936;2023-06-26T03:01:57;16.50;95.50
53904;DHT22;39812;52.430;16.936;2023-06-26T03:04:23;16.40;95.70
53904;DHT22;39812;52.430;16.936;2023-06-26T03:06:48;16.40;95.80
53904;DHT22;39812;52.430;16.936;2023-06-26T03:09:14;16.30;96.10
53904;DHT22;39812;52.430;16.936;2023-06-26T03:11:40;16.30;96.40
53904;DHT22;39812;52.430;16.936;2023-06-26T03:14:05;16.40;96.20
53904;DHT22;39812;52.430;16.936;2023-06-26T03:16:31;16.50;96.10
53904;DHT22;39812;52.430;16.936;2023-06-26T03:18:57;16.60;95.90
53904;DHT22;39812;52.430;16.936;2023-06-26T03:21:22;16.60;95.30
53904;DHT22;39812;52.430;16.936;2023-06-26T03:23:48;16.80;95.00
53904;DHT22;39812;52.430;16.936;2023-06-26T03:26:13;16.90;94.70
53904;DHT22;39812;52.430;16.936;2023-06-26T03:28:40;17.00;94.40
53904;DHT22;39812;52.430;16.936;2023-06-26T03:31:06;17.10;94.00
53904;DHT22;39812;52.430;16.936;2023-06-26T03:33:31;17.10;94.10
53904;DHT22;39812;52.430;16.936;2023-06-26T03:35:57;17.20;93.90
53904;DHT22;39812;52.430;16.936;2023-06-26T03:38:24;17.20;94.00
53904;DHT22;39812;52.430;16.936;2023-06-26T03:40:51;17.20;94.10
53904;DHT22;39812;52.430;16.936;2023-06-26T03:43:17;17.30;93.60
53904;DHT22;39812;52.430;16.936;2023-06-26T03:45:43;17.40;93.60
53904;DHT22;39812;52.430;16.936;2023-06-26T03:48:08;17.50;93.50
53904;DHT22;39812;52.430;16.936;2023-06-26T03:50:34;17.60;93.40
53904;DHT22;39812;52.430;16.936;2023-06-26T03:53:00;17.50;93.50
53904;DHT22;39812;52.430;16.936;2023-06-26T03:55:25;17.60;93.40
53904;DHT22;39812;52.430;16.936;2023-06-26T03:57:51;17.60;93.40
53904;DHT22;39812;52.430;16.936;2023-06-26T04:00:16;17.70;93.30
53904;DHT22;39812;52.430;16.936;2023-06-26T04:02:43;17.80;93.30
53904;DHT22;39812;52.430;16.936;2023-06-26T04:05:08;17.90;93.20
53904;DHT22;39812;52.430;16.936;2023-06-26T04:07:34;17.90;93.10
53904;DHT22;39812;52.430;16.936;2023-06-26T04:10:01;18.00;93.00
53904;DHT22;39812;52.430;16.936;2023-06-26T04:12:27;18.00;92.80
53904;DHT22;39812;52.430;16.936;2023-06-26T04:14:52;18.10;92.10
53904;DHT22;39812;52.430;16.936;2023-06-26T04:17:18;18.20;91.60
53904;DHT22;39812;52.430;16.936;2023-06-26T04:19:44;18.20;91.60
53904;DHT22;39812;52.430;16.936;2023-06-26T04:22:09;18.40;91.40
53904;DHT22;39812;52.430;16.936;2023-06-26T04:24:35;18.40;91.10
53904;DHT22;39812;52.430;16.936;2023-06-26T04:27:00;18.40;90.90
53904;DHT22;39812;52.430;16.936;2023-06-26T04:29:26;18.40;90.80
53904;DHT22;39812;52.430;16.936;2023-06-26T04:31:53;18.50;90.30
53904;DHT22;39812;52.430;16.936;2023-06-26T04:34:26;18.60;90.10
53904;DHT22;39812;52.430;16.936;2023-06-26T04:36:51;18.60;90.30
53904;DHT22;39812;52.430;16.936;2023-06-26T04:39:17;18.70;90.20
53904;DHT22;39812;52.430;16.936;2023-06-26T04:41:44;18.80;90.00
53904;DHT22;39812;52.430;16.936;2023-06-26T04:44:10;18.80;89.50
53904;DHT22;39812;52.430;16.936;2023-06-26T04:46:37;18.90;88.80
53904;DHT22;39812;52.430;16.936;2023-06-26T04:49:03;19.00;89.00
53904;DHT22;39812;52.430;16.936;2023-06-26T04:51:29;19.10;88.60
53904;DHT22;39812;52.430;16.936;2023-06-26T04:53:55;19.20;87.50
53904;DHT22;39812;52.430;16.936;2023-06-26T04:56:20;19.20;87.70
53904;DHT22;39812;52.430;16.936;2023-06-26T04:58:46;19.30;87.30
53904;DHT22;39812;52.430;16.936;2023-06-26T05:01:11;19.40;86.80
53904;DHT22;39812;52.430;16.936;2023-06-26T05:03:39;19.40;86.10
53904;DHT22;39812;52.430;16.936;2023-06-26T05:06:04;19.60;85.30
53904;DHT22;39812;52.430;16.936;2023-06-26T05:08:30;19.70;84.30
53904;DHT22;39812;52.430;16.936;2023-06-26T05:10:56;19.80;83.50
53904;DHT22;39812;52.430;16.936;2023-06-26T05:13:25;19.90;83.60
53904;DHT22;39812;52.430;16.936;2023-06-26T05:15:52;19.90;83.50
53904;DHT22;39812;52.430;16.936;2023-06-26T05:18:18;19.90;83.70
53904;DHT22;39812;52.430;16.936;2023-06-26T05:20:43;19.90;83.90
53904;DHT22;39812;52.430;16.936;2023-06-26T05:23:11;20.10;84.00
53904;DHT22;39812;52.430;16.936;2023-06-26T05:25:38;20.10;83.70
53904;DHT22;39812;52.430;16.936;2023-06-26T05:28:04;20.20;83.20
53904;DHT22;39812;52.430;16.936;2023-06-26T05:30:35;20.30;83.10
53904;DHT22;39812;52.430;16.936;2023-06-26T05:33:02;20.30;83.00
53904;DHT22;39812;52.430;16.936;2023-06-26T05:35:31;20.40;82.70
53904;DHT22;39812;52.430;16.936;2023-06-26T05:37:58;20.60;82.60
53904;DHT22;39812;52.430;16.936;2023-06-26T05:40:24;20.70;82.50
53904;DHT22;39812;52.430;16.936;2023-06-26T05:42:50;20.80;82.10
53904;DHT22;39812;52.430;16.936;2023-06-26T05:45:16;20.90;81.50
53904;DHT22;39812;52.430;16.936;2023-06-26T05:47:42;21.00;80.80
53904;DHT22;39812;52.430;16.936;2023-06-26T05:50:09;21.10;80.50
53904;DHT22;39812;52.430;16.936;2023-06-26T05:52:35;21.10;80.00
53904;DHT22;39812;52.430;16.936;2023-06-26T05:55:02;21.10;80.10
53904;DHT22;39812;52.430;16.936;2023-06-26T05:57:29;21.20;79.90
53904;DHT22;39812;52.430;16.936;2023-06-26T05:59:56;21.30;80.20
53904;DHT22;39812;52.430;16.936;2023-06-26T06:02:22;21.40;80.20
53904;DHT22;39812;52.430;16.936;2023-06-26T06:04:48;21.50;79.90
53904;DHT22;39812;52.430;16.936;2023-06-26T06:07:14;21.60;79.10
53904;DHT22;39812;52.430;16.936;2023-06-26T06:09:39;21.50;78.80
53904;DHT22;39812;52.430;16.936;2023-06-26T06:12:08;21.60;79.20
53904;DHT22;39812;52.430;16.936;2023-06-26T06:14:34;21.60;78.60
53904;DHT22;39812;52.430;16.936;2023-06-26T06:17:00;21.80;78.50
53904;DHT22;39812;52.430;16.936;2023-06-26T06:19:25;21.90;78.20
53904;DHT22;39812;52.430;16.936;2023-06-26T06:21:51;22.00;77.30
53904;DHT22;39812;52.430;16.936;2023-06-26T06:24:17;22.10;77.00
53904;DHT22;39812;52.430;16.936;2023-06-26T06:26:43;22.20;77.10
53904;DHT22;39812;52.430;16.936;2023-06-26T06:29:08;22.30;76.80
53904;DHT22;39812;52.430;16.936;2023-06-26T06:31:34;22.40;74.30
53904;DHT22;39812;52.430;16.936;2023-06-26T06:33:59;22.50;75.20
53904;DHT22;39812;52.430;16.936;2023-06-26T06:36:25;22.60;74.50
53904;DHT22;39812;52.430;16.936;2023-06-26T06:38:51;22.70;74.30
53904;DHT22;39812;52.430;16.936;2023-06-26T06:41:16;22.80;74.10
53904;DHT22;39812;52.430;16.936;2023-06-26T06:43:42;22.90;73.50
53904;DHT22;39812;52.430;16.936;2023-06-26T06:46:08;22.90;72.90
53904;DHT22;39812;52.430;16.936;2023-06-26T06:48:34;23.00;72.60
53904;DHT22;39812;52.430;16.936;2023-06-26T06:51:00;23.00;71.80
53904;DHT22;39812;52.430;16.936;2023-06-26T06:53:25;23.20;71.50
53904;DHT22;39812;52.430;16.936;2023-06-26T06:55:51;23.20;71.60
53904;DHT22;39812;52.430;16.936;2023-06-26T06:58:16;23.30;70.40
53904;DHT22;39812;52.430;16.936;2023-06-26T07:00:46;23.40;69.50
53904;DHT22;39812;52.430;16.936;2023-06-26T07:03:11;23.40;66.50
53904;DHT22;39812;52.430;16.936;2023-06-26T07:05:37;23.50;68.20
53904;DHT22;39812;52.430;16.936;2023-06-26T07:08:03;23.50;68.60
53904;DHT22;39812;52.430;16.936;2023-06-26T07:10:29;23.50;69.00
53904;DHT22;39812;52.430;16.936;2023-06-26T07:12:55;23.60;68.50
53904;DHT22;39812;52.430;16.936;2023-06-26T07:15:21;23.50;67.70
53904;DHT22;39812;52.430;16.936;2023-06-26T07:17:46;23.50;67.60
53904;DHT22;39812;52.430;16.936;2023-06-26T07:20:12;23.60;67.00
53904;DHT22;39812;52.430;16.936;2023-06-26T07:22:41;23.60;65.80
53904;DHT22;39812;52.430;16.936;2023-06-26T07:25:07;23.70;64.10
53904;DHT22;39812;52.430;16.936;2023-06-26T07:27:36;23.70;65.20
53904;DHT22;39812;52.430;16.936;2023-06-26T07:30:02;23.80;65.90
53904;DHT22;39812;52.430;16.936;2023-06-26T07:32:28;23.90;65.70
53904;DHT22;39812;52.430;16.936;2023-06-26T07:34:54;24.00;65.40
53904;DHT22;39812;52.430;16.936;2023-06-26T07:37:19;24.10;65.50
53904;DHT22;39812;52.430;16.936;2023-06-26T07:39:45;24.20;65.40
53904;DHT22;39812;52.430;16.936;2023-06-26T07:42:10;24.20;66.30
53904;DHT22;39812;52.430;16.936;2023-06-26T07:44:36;24.10;66.50
53904;DHT22;39812;52.430;16.936;2023-06-26T07:47:02;24.20;66.70
53904;DHT22;39812;52.430;16.936;2023-06-26T07:49:28;24.30;66.40
53904;DHT22;39812;52.430;16.936;2023-06-26T07:51:54;24.30;66.40
53904;DHT22;39812;52.430;16.936;2023-06-26T07:54:20;24.30;66.50
53904;DHT22;39812;52.430;16.936;2023-06-26T07:56:53;24.30;65.90
53904;DHT22;39812;52.430;16.936;2023-06-26T07:59:20;24.30;66.00
53904;DHT22;39812;52.430;16.936;2023-06-26T08:01:46;24.40;66.30
53904;DHT22;39812;52.430;16.936;2023-06-26T08:04:12;24.60;66.50
53904;DHT22;39812;52.430;16.936;2023-06-26T08:06:38;24.70;66.60
53904;DHT22;39812;52.430;16.936;2023-06-26T08:09:07;24.80;65.90
53904;DHT22;39812;52.430;16.936;2023-06-26T08:11:35;24.80;65.40
53904;DHT22;39812;52.430;16.936;2023-06-26T08:14:01;24.90;65.60
53904;DHT22;39812;52.430;16.936;2023-06-26T08:16:27;25.00;65.00
53904;DHT22;39812;52.430;16.936;2023-06-26T08:18:52;25.20;64.30
53904;DHT22;39812;52.430;16.936;2023-06-26T08:21:18;25.20;64.20
53904;DHT22;39812;52.430;16.936;2023-06-26T08:23:43;25.20;64.60
53904;DHT22;39812;52.430;16.936;2023-06-26T08:26:09;25.10;64.90
53904;DHT22;39812;52.430;16.936;2023-06-26T08:28:34;25.00;65.10
53904;DHT22;39812;52.430;16.936;2023-06-26T08:31:00;25.00;65.40
53904;DHT22;39812;52.430;16.936;2023-06-26T08:33:26;25.10;64.80
53904;DHT22;39812;52.430;16.936;2023-06-26T08:35:52;25.10;64.60
53904;DHT22;39812;52.430;16.936;2023-06-26T08:38:17;25.20;64.90
53904;DHT22;39812;52.430;16.936;2023-06-26T08:40:43;25.30;65.00
53904;DHT22;39812;52.430;16.936;2023-06-26T08:43:09;25.30;64.40
53904;DHT22;39812;52.430;16.936;2023-06-26T08:45:35;25.40;64.40
53904;DHT22;39812;52.430;16.936;2023-06-26T08:48:01;25.20;64.30
53904;DHT22;39812;52.430;16.936;2023-06-26T08:50:30;25.20;64.50
53904;DHT22;39812;52.430;16.936;2023-06-26T08:53:04;25.20;64.50
53904;DHT22;39812;52.430;16.936;2023-06-26T08:55:33;25.20;64.60
53904;DHT22;39812;52.430;16.936;2023-06-26T08:58:01;25.30;64.20
53904;DHT22;39812;52.430;16.936;2023-06-26T09:00:27;25.40;63.40
53904;DHT22;39812;52.430;16.936;2023-06-26T09:02:53;25.40;63.80
53904;DHT22;39812;52.430;16.936;2023-06-26T09:05:19;25.40;64.00
53904;DHT22;39812;52.430;16.936;2023-06-26T09:07:45;25.50;64.00
53904;DHT22;39812;52.430;16.936;2023-06-26T09:10:10;25.70;63.10
53904;DHT22;39812;52.430;16.936;2023-06-26T09:12:37;26.00;63.10
53904;DHT22;39812;52.430;16.936;2023-06-26T09:15:05;26.30;62.60
53904;DHT22;39812;52.430;16.936;2023-06-26T09:17:38;26.50;62.50
53904;DHT22;39812;52.430;16.936;2023-06-26T09:20:04;26.80;61.70
53904;DHT22;39812;52.430;16.936;2023-06-26T09:22:33;26.90;61.20
53904;DHT22;39812;52.430;16.936;2023-06-26T09:25:01;26.90;61.60
53904;DHT22;39812;52.430;16.936;2023-06-26T09:27:26;26.80;60.50
53904;DHT22;39812;52.430;16.936;2023-06-26T09:29:52;26.90;60.40
53904;DHT22;39812;52.430;16.936;2023-06-26T09:32:18;26.60;60.70
53904;DHT22;39812;52.430;16.936;2023-06-26T09:34:43;26.70;60.80
53904;DHT22;39812;52.430;16.936;2023-06-26T09:37:12;26.70;61.20
53904;DHT22;39812;52.430;16.936;2023-06-26T09:39:38;27.00;60.80
53904;DHT22;39812;52.430;16.936;2023-06-26T09:42:04;26.90;61.00
53904;DHT22;39812;52.430;16.936;2023-06-26T09:44:33;27.00;60.40
53904;DHT22;39812;52.430;16.936;2023-06-26T09:46:58;27.40;60.00
53904;DHT22;39812;52.430;16.936;2023-06-26T09:49:24;27.60;59.60
53904;DHT22;39812;52.430;16.936;2023-06-26T09:51:51;27.70;59.20
53904;DHT22;39812;52.430;16.936;2023-06-26T09:54:17;27.80;59.40
53904;DHT22;39812;52.430;16.936;2023-06-26T09:56:45;28.10;59.50
53904;DHT22;39812;52.430;16.936;2023-06-26T09:59:11;28.30;58.50
53904;DHT22;39812;52.430;16.936;2023-06-26T10:01:40;28.00;59.00
53904;DHT22;39812;52.430;16.936;2023-06-26T10:04:06;27.80;59.30
53904;DHT22;39812;52.430;16.936;2023-06-26T10:06:49;27.70;59.30
53904;DHT22;39812;52.430;16.936;2023-06-26T10:09:17;27.90;59.10
53904;DHT22;39812;52.430;16.936;2023-06-26T10:11:57;28.00;59.00
53904;DHT22;39812;52.430;16.936;2023-06-26T10:14:27;28.50;58.30
53904;DHT22;39812;52.430;16.936;2023-06-26T10:16:54;28.70;58.10
53904;DHT22;39812;52.430;16.936;2023-06-26T10:19:22;28.90;57.30
53904;DHT22;39812;52.430;16.936;2023-06-26T10:21:55;29.10;57.00
53904;DHT22;39812;52.430;16.936;2023-06-26T10:24:22;28.70;57.10
53904;DHT22;39812;52.430;16.936;2023-06-26T10:26:52;28.30;57.10
53904;DHT22;39812;52.430;16.936;2023-06-26T10:29:19;28.10;58.00
53904;DHT22;39812;52.430;16.936;2023-06-26T10:31:50;28.30;58.00
53904;DHT22;39812;52.430;16.936;2023-06-26T10:34:16;28.40;57.60
53904;DHT22;39812;52.430;16.936;2023-06-26T10:36:42;28.80;57.40
53904;DHT22;39812;52.430;16.936;2023-06-26T10:39:08;29.40;57.20
53904;DHT22;39812;52.430;16.936;2023-06-26T10:41:38;29.00;56.90
53904;DHT22;39812;52.430;16.936;2023-06-26T10:44:11;29.20;56.90
53904;DHT22;39812;52.430;16.936;2023-06-26T10:46:53;29.60;56.20
53904;DHT22;39812;52.430;16.936;2023-06-26T10:49:20;29.80;55.90
53904;DHT22;39812;52.430;16.936;2023-06-26T10:51:50;29.70;55.70
53904;DHT22;39812;52.430;16.936;2023-06-26T10:54:17;29.50;55.60
53904;DHT22;39812;52.430;16.936;2023-06-26T10:56:43;29.20;56.40
53904;DHT22;39812;52.430;16.936;2023-06-26T10:59:16;29.20;56.50
53904;DHT22;39812;52.430;16.936;2023-06-26T11:01:43;29.70;56.20
53904;DHT22;39812;52.430;16.936;2023-06-26T11:04:12;30.00;55.80
53904;DHT22;39812;52.430;16.936;2023-06-26T11:06:40;30.00;55.40
53904;DHT22;39812;52.430;16.936;2023-06-26T11:14:16;29.50;56.80
53904;DHT22;39812;52.430;16.936;2023-06-26T11:16:42;29.60;56.50
53904;DHT22;39812;52.430;16.936;2023-06-26T11:19:12;30.00;56.10
53904;DHT22;39812;52.430;16.936;2023-06-26T11:21:38;30.30;55.70
53904;DHT22;39812;52.430;16.936;2023-06-26T11:24:08;30.90;55.20
53904;DHT22;39812;52.430;16.936;2023-06-26T11:26:41;30.70;54.90
53904;DHT22;39812;52.430;16.936;2023-06-26T11:29:07;30.80;54.30
53904;DHT22;39812;52.430;16.936;2023-06-26T11:31:35;31.20;54.40
53904;DHT22;39812;52.430;16.936;2023-06-26T11:34:02;31.30;54.50
53904;DHT22;39812;52.430;16.936;2023-06-26T11:36:30;31.80;53.80
53904;DHT22;39812;52.430;16.936;2023-06-26T11:39:00;32.70;52.70
53904;DHT22;39812;52.430;16.936;2023-06-26T11:41:29;33.80;51.20
53904;DHT22;39812;52.430;16.936;2023-06-26T11:44:00;34.00;50.90
53904;DHT22;39812;52.430;16.936;2023-06-26T11:46:25;36.00;49.00
53904;DHT22;39812;52.430;16.936;2023-06-26T11:48:52;36.50;47.30
53904;DHT22;39812;52.430;16.936;2023-06-26T11:51:18;36.80;46.80
53904;DHT22;39812;52.430;16.936;2023-06-26T11:53:45;38.20;45.70
53904;DHT22;39812;52.430;16.936;2023-06-26T11:56:12;38.70;44.50
53904;DHT22;39812;52.430;16.936;2023-06-26T11:59:00;40.60;43.70
53904;DHT22;39812;52.430;16.936;2023-06-26T12:01:37;40.40;42.80
53904;DHT22;39812;52.430;16.936;2023-06-26T12:04:05;40.10;43.00
53904;DHT22;39812;52.430;16.936;2023-06-26T12:06:36;40.10;42.70
53904;DHT22;39812;52.430;16.936;2023-06-26T12:09:04;40.50;42.50
53904;DHT22;39812;52.430;16.936;2023-06-26T12:11:30;40.50;42.40
53904;DHT22;39812;52.430;16.936;2023-06-26T12:13:57;41.00;41.50
53904;DHT22;39812;52.430;16.936;2023-06-26T12:16:23;41.50;41.20
53904;DHT22;39812;52.430;16.936;2023-06-26T12:18:50;43.60;40.60
53904;DHT22;39812;52.430;16.936;2023-06-26T12:24:00;44.30;39.80
53904;DHT22;39812;52.430;16.936;2023-06-26T12:26:27;44.90;38.60
53904;DHT22;39812;52.430;16.936;2023-06-26T12:28:53;44.60;38.70
53904;DHT22;39812;52.430;16.936;2023-06-26T12:31:21;46.50;38.00
53904;DHT22;39812;52.430;16.936;2023-06-26T12:33:47;45.50;37.70
53904;DHT22;39812;52.430;16.936;2023-06-26T12:36:13;43.60;38.10
53904;DHT22;39812;52.430;16.936;2023-06-26T12:38:41;41.60;39.50
53904;DHT22;39812;52.430;16.936;2023-06-26T12:41:15;38.10;42.10
53904;DHT22;39812;52.430;16.936;2023-06-26T12:43:41;35.60;45.20
53904;DHT22;39812;52.430;16.936;2023-06-26T12:46:07;34.20;47.30
53904;DHT22;39812;52.430;16.936;2023-06-26T12:48:40;33.30;49.40
53904;DHT22;39812;52.430;16.936;2023-06-26T12:51:13;32.60;50.40
53904;DHT22;39812;52.430;16.936;2023-06-26T12:53:39;31.70;51.50
53904;DHT22;39812;52.430;16.936;2023-06-26T12:56:06;31.00;52.60
53904;DHT22;39812;52.430;16.936;2023-06-26T12:58:33;30.90;53.50
53904;DHT22;39812;52.430;16.936;2023-06-26T13:00:58;30.80;53.80
53904;DHT22;39812;52.430;16.936;2023-06-26T13:03:24;30.80;54.30
53904;DHT22;39812;52.430;16.936;2023-06-26T13:05:49;30.60;54.80
53904;DHT22;39812;52.430;16.936;2023-06-26T13:08:16;30.40;55.80
53904;DHT22;39812;52.430;16.936;2023-06-26T13:10:42;30.20;56.60
53904;DHT22;39812;52.430;16.936;2023-06-26T13:13:10;30.30;56.30
53904;DHT22;39812;52.430;16.936;2023-06-26T13:15:36;30.70;56.40
53904;DHT22;39812;52.430;16.936;2023-06-26T13:18:01;30.70;55.90
53904;DHT22;39812;52.430;16.936;2023-06-26T13:20:27;30.40;55.80
53904;DHT22;39812;52.430;16.936;2023-06-26T13:22:53;30.00;56.60
53904;DHT22;39812;52.430;16.936;2023-06-26T13:25:20;29.70;57.40
53904;DHT22;39812;52.430;16.936;2023-06-26T13:27:46;29.80;57.50
53904;DHT22;39812;52.430;16.936;2023-06-26T13:30:12;29.80;57.90
53904;DHT22;39812;52.430;16.936;2023-06-26T13:32:38;30.00;57.60
53904;DHT22;39812;52.430;16.936;2023-06-26T13:35:04;30.00;58.00
53904;DHT22;39812;52.430;16.936;2023-06-26T13:37:30;29.90;58.30
53904;DHT22;39812;52.430;16.936;2023-06-26T13:39:55;29.40;59.20
53904;DHT22;39812;52.430;16.936;2023-06-26T13:42:23;29.10;59.20
53904;DHT22;39812;52.430;16.936;2023-06-26T13:44:48;29.20;59.70
53904;DHT22;39812;52.430;16.936;2023-06-26T13:47:15;29.10;59.00
53904;DHT22;39812;52.430;16.936;2023-06-26T13:49:40;29.10;59.30
53904;DHT22;39812;52.430;16.936;2023-06-26T13:52:06;29.30;59.20
53904;DHT22;39812;52.430;16.936;2023-06-26T13:54:36;29.50;58.70
53904;DHT22;39812;52.430;16.936;2023-06-26T13:57:02;29.80;58.80
53904;DHT22;39812;52.430;16.936;2023-06-26T13:59:30;30.10;58.00
53904;DHT22;39812;52.430;16.936;2023-06-26T14:01:56;30.80;56.60
53904;DHT22;39812;52.430;16.936;2023-06-26T14:04:21;31.70;54.70
53904;DHT22;39812;52.430;16.936;2023-06-26T14:06:47;32.20;54.60
53904;DHT22;39812;52.430;16.936;2023-06-26T14:09:13;34.40;52.10
53904;DHT22;39812;52.430;16.936;2023-06-26T14:11:39;35.00;50.50
53904;DHT22;39812;52.430;16.936;2023-06-26T14:14:04;35.30;50.20
53904;DHT22;39812;52.430;16.936;2023-06-26T14:16:30;35.50;50.10
53904;DHT22;39812;52.430;16.936;2023-06-26T14:18:57;36.30;49.20
53904;DHT22;39812;52.430;16.936;2023-06-26T14:21:22;36.90;48.00
53904;DHT22;39812;52.430;16.936;2023-06-26T14:23:48;38.70;47.00
53904;DHT22;39812;52.430;16.936;2023-06-26T14:26:14;41.50;44.80
53904;DHT22;39812;52.430;16.936;2023-06-26T14:28:40;40.50;43.00
53904;DHT22;39812;52.430;16.936;2023-06-26T14:31:06;39.40;44.20
53904;DHT22;39812;52.430;16.936;2023-06-26T14:33:31;37.70;44.60
53904;DHT22;39812;52.430;16.936;2023-06-26T14:35:57;36.40;46.40
53904;DHT22;39812;52.430;16.936;2023-06-26T14:38:23;38.60;45.50
53904;DHT22;39812;52.430;16.936;2023-06-26T14:40:50;40.20;43.40
53904;DHT22;39812;52.430;16.936;2023-06-26T14:43:15;41.10;42.80
53904;DHT22;39812;52.430;16.936;2023-06-26T14:45:42;42.00;41.80
53904;DHT22;39812;52.430;16.936;2023-06-26T14:48:07;42.30;41.50
53904;DHT22;39812;52.430;16.936;2023-06-26T14:50:33;44.80;40.20
53904;DHT22;39812;52.430;16.936;2023-06-26T14:52:58;44.90;39.40
53904;DHT22;39812;52.430;16.936;2023-06-26T14:55:24;47.70;38.10
53904;DHT22;39812;52.430;16.936;2023-06-26T14:57:50;49.70;36.50
53904;DHT22;39812;52.430;16.936;2023-06-26T15:00:16;50.10;35.50
53904;DHT22;39812;52.430;16.936;2023-06-26T15:02:42;51.00;35.60
53904;DHT22;39812;52.430;16.936;2023-06-26T15:05:08;48.50;35.90
53904;DHT22;39812;52.430;16.936;2023-06-26T15:07:34;45.70;37.70
53904;DHT22;39812;52.430;16.936;2023-06-26T15:09:59;44.20;39.10
53904;DHT22;39812;52.430;16.936;2023-06-26T15:12:25;45.60;38.40
53904;DHT22;39812;52.430;16.936;2023-06-26T15:14:52;44.10;38.60
53904;DHT22;39812;52.430;16.936;2023-06-26T15:17:18;41.70;40.00
53904;DHT22;39812;52.430;16.936;2023-06-26T15:19:44;39.00;42.30
53904;DHT22;39812;52.430;16.936;2023-06-26T15:22:09;38.20;44.40
53904;DHT22;39812;52.430;16.936;2023-06-26T15:24:35;37.20;45.70